Time;durP1;ratioP1;P1;durP2;ratioP2;P2;SDS_P1;SDS_P2;PMS_P1;PMS_P2;Temp;Humidity;BMP_temperature;BMP_pressure;BME280_temperature;BME280_humidity;BME280_pressure;Samples;Min_cycle;Max_cycle;Signal;HPM_P1;HPM_P2
2021/03/25 00:01:13;;;;;;;23.57;13.00;;;5.50;99.90;;;;;;5038174;28;20029;-86
2021/03/25 00:03:39;;;;;;;23.07;12.87;;;5.50;99.90;;;;;;5030604;28;20030;-87
2021/03/25 00:06:06;;;;;;;25.03;12.73;;;5.50;99.90;;;;;;5034777;28;20509;-87
2021/03/25 00:08:33;;;;;;;29.30;13.23;;;5.40;99.90;;;;;;5037695;28;20021;-85
2021/03/25 00:11:00;;;;;;;24.93;12.57;;;5.40;99.90;;;;;;5025021;28;20033;-87
2021/03/25 00:13:25;;;;;;;21.33;12.00;;;5.40;99.90;;;;;;5032761;28;20018;-84
2021/03/25 00:15:51;;;;;;;23.43;12.67;;;5.40;99.90;;;;;;5038136;28;20472;-86
2021/03/25 00:18:18;;;;;;;24.90;11.63;;;5.30;99.90;;;;;;5039163;28;20041;-86
2021/03/25 00:20:45;;;;;;;28.50;12.13;;;5.30;99.90;;;;;;5038358;28;20021;-84
2021/03/25 00:23:11;;;;;;;24.57;12.37;;;5.30;99.90;;;;;;5038249;28;20025;-86
2021/03/25 00:25:38;;;;;;;24.07;11.47;;;5.20;99.90;;;;;;5038954;28;20025;-85
2021/03/25 00:28:05;;;;;;;27.37;12.43;;;5.20;99.90;;;;;;5032433;28;20077;-84
2021/03/25 00:30:32;;;;;;;20.43;11.17;;;5.20;99.90;;;;;;5036773;28;20033;-86
2021/03/25 00:33:00;;;;;;;24.03;12.80;;;5.20;99.90;;;;;;5035965;28;20045;-85
2021/03/25 00:35:28;;;;;;;23.03;12.33;;;5.10;99.90;;;;;;5033744;28;20021;-82
2021/03/25 00:37:57;;;;;;;21.97;12.60;;;5.10;99.90;;;;;;5035922;28;20041;-83
2021/03/25 00:40:22;;;;;;;25.23;12.60;;;5.10;99.90;;;;;;5032019;28;20053;-83
2021/03/25 00:42:49;;;;;;;22.73;11.77;;;5.10;99.90;;;;;;5029167;28;20103;-84
2021/03/25 00:45:35;;;;;;;23.20;11.93;;;5.10;99.90;;;;;;5027992;28;20035;-82
2021/03/25 00:48:01;;;;;;;26.23;12.20;;;5.10;99.90;;;;;;5032492;28;20022;-81
2021/03/25 00:50:30;;;;;;;23.77;11.37;;;5.10;99.90;;;;;;5028040;28;20014;-83
2021/03/25 00:52:57;;;;;;;24.40;13.20;;;5.10;99.90;;;;;;5033591;28;20017;-84
2021/03/25 00:55:27;;;;;;;23.47;12.13;;;5.10;99.90;;;;;;5021547;28;20032;-82
2021/03/25 00:57:53;;;;;;;26.23;12.07;;;5.10;99.90;;;;;;5030282;28;20026;-85
2021/03/25 01:00:24;;;;;;;23.13;11.37;;;5.00;99.90;;;;;;5034586;28;20044;-83
2021/03/25 01:02:52;;;;;;;21.60;11.17;;;5.00;99.90;;;;;;5032380;28;20021;-83
2021/03/25 01:05:20;;;;;;;23.87;11.83;;;5.00;99.90;;;;;;5034316;28;20108;-84
2021/03/25 01:07:46;;;;;;;20.63;12.07;;;4.90;99.90;;;;;;5025751;28;20018;-83
2021/03/25 01:10:20;;;;;;;20.97;12.40;;;4.90;99.90;;;;;;5027827;28;20029;-85
2021/03/25 01:12:47;;;;;;;24.70;12.33;;;4.90;99.90;;;;;;5028650;28;20029;-84
2021/03/25 01:15:12;;;;;;;22.90;11.90;;;4.80;99.90;;;;;;5028085;28;20026;-85
2021/03/25 01:18:03;;;;;;;22.37;12.13;;;4.80;99.90;;;;;;5022284;28;20113;-83
2021/03/25 01:20:34;;;;;;;25.43;12.43;;;4.80;99.90;;;;;;5028241;28;20057;-84
2021/03/25 01:23:00;;;;;;;25.17;11.80;;;4.80;99.90;;;;;;5035737;28;20508;-83
2021/03/25 01:25:27;;;;;;;23.70;11.93;;;4.80;99.90;;;;;;5033223;28;20025;-82
2021/03/25 01:27:57;;;;;;;22.90;11.07;;;4.70;99.90;;;;;;5031720;28;20028;-85
2021/03/25 01:30:23;;;;;;;26.03;12.57;;;4.70;99.90;;;;;;5029069;28;20017;-84
2021/03/25 01:32:50;;;;;;;26.37;12.03;;;4.70;99.90;;;;;;5035839;28;20025;-84
2021/03/25 01:35:16;;;;;;;23.37;12.30;;;4.70;99.90;;;;;;5028096;28;20025;-83
2021/03/25 01:37:44;;;;;;;23.73;12.70;;;4.70;99.90;;;;;;5029706;28;20037;-83
2021/03/25 01:40:14;;;;;;;26.93;11.80;;;4.60;99.90;;;;;;5035090;28;20017;-82
2021/03/25 01:42:41;;;;;;;23.00;12.57;;;4.60;99.90;;;;;;5037148;28;20108;-83
2021/03/25 01:45:28;;;;;;;27.53;11.80;;;4.60;99.90;;;;;;5036341;28;20017;-84
2021/03/25 01:47:59;;;;;;;25.87;11.53;;;4.60;99.90;;;;;;5034083;28;20028;-84
2021/03/25 01:50:25;;;;;;;23.03;11.03;;;4.60;99.90;;;;;;5037869;28;20100;-85
2021/03/25 01:52:55;;;;;;;21.37;11.70;;;4.60;99.90;;;;;;5030530;28;20048;-83
2021/03/25 01:55:44;;;;;;;22.57;11.00;;;4.50;99.90;;;;;;5032224;28;20041;-83
2021/03/25 01:58:47;;;;;;;23.27;10.97;;;4.50;99.90;;;;;;5036085;28;20371;-85
2021/03/25 02:01:37;;;;;;;25.20;12.33;;;4.50;99.90;;;;;;5038034;28;20096;-83
2021/03/25 02:04:18;;;;;;;24.57;11.13;;;4.50;99.90;;;;;;5036724;28;20028;-85
2021/03/25 02:07:15;;;;;;;20.50;10.83;;;4.50;99.90;;;;;;5034186;28;20532;-83
2021/03/25 02:10:09;;;;;;;23.97;11.03;;;4.40;99.90;;;;;;5032432;28;20123;-82
2021/03/25 02:12:56;;;;;;;28.00;11.80;;;4.40;99.90;;;;;;5036939;28;20104;-83
2021/03/25 02:15:35;;;;;;;23.17;11.20;;;4.40;99.90;;;;;;5036288;28;20071;-85
2021/03/25 02:18:33;;;;;;;22.53;10.93;;;4.40;99.90;;;;;;5035099;28;20406;-83
2021/03/25 02:21:21;;;;;;;25.37;11.87;;;4.40;99.90;;;;;;5032162;28;20021;-85
2021/03/25 02:23:55;;;;;;;22.90;11.10;;;4.30;99.90;;;;;;5024817;28;20112;-84
2021/03/25 02:26:32;;;;;;;22.10;10.53;;;4.30;99.90;;;;;;5033091;28;20029;-83
2021/03/25 02:29:01;;;;;;;20.10;10.60;;;4.30;99.90;;;;;;5037806;28;20017;-85
2021/03/25 02:31:32;;;;;;;21.73;11.63;;;4.20;99.90;;;;;;5028976;28;20105;-85
2021/03/25 02:34:03;;;;;;;21.17;10.57;;;4.20;99.90;;;;;;5022990;28;20439;-85
2021/03/25 02:36:51;;;;;;;14.13;7.27;;;4.20;99.90;;;;;;5030926;28;20040;-85
2021/03/25 02:39:30;;;;;;;19.13;9.90;;;4.20;99.90;;;;;;5036761;28;20063;-83
2021/03/25 02:41:57;;;;;;;18.63;11.00;;;4.10;99.90;;;;;;5037136;28;20029;-83
2021/03/25 02:44:31;;;;;;;20.47;10.27;;;4.10;99.90;;;;;;5025618;28;20440;-84
2021/03/25 02:47:08;;;;;;;23.47;11.43;;;4.10;99.90;;;;;;5035824;28;20035;-84
2021/03/25 02:49:57;;;;;;;21.47;10.50;;;4.10;99.90;;;;;;5046642;28;20354;-82
2021/03/25 02:52:30;;;;;;;17.37;9.77;;;4.10;99.90;;;;;;5036116;28;20021;-85
2021/03/25 02:55:00;;;;;;;18.33;10.20;;;4.10;99.90;;;;;;5035886;28;20124;-86
2021/03/25 02:57:34;;;;;;;17.10;9.77;;;4.00;99.90;;;;;;5023459;28;20037;-84
2021/03/25 03:00:07;;;;;;;17.30;10.10;;;4.00;99.90;;;;;;5035810;28;20534;-85
2021/03/25 03:02:38;;;;;;;22.17;10.30;;;4.00;99.90;;;;;;5034293;28;20036;-83
2021/03/25 03:05:17;;;;;;;19.13;10.50;;;4.00;99.90;;;;;;5037027;28;20609;-83
2021/03/25 03:08:17;;;;;;;21.33;10.20;;;4.00;99.90;;;;;;5026931;28;20053;-85
2021/03/25 03:10:51;;;;;;;18.97;10.67;;;3.90;99.90;;;;;;5027957;28;20045;-85
2021/03/25 03:13:19;;;;;;;20.27;10.57;;;3.90;99.90;;;;;;5032747;28;20025;-84
2021/03/25 03:15:59;;;;;;;17.43;9.87;;;3.90;99.90;;;;;;5028174;28;20030;-83
2021/03/25 03:18:26;;;;;;;17.80;9.00;;;3.90;99.90;;;;;;5030462;28;20100;-83
2021/03/25 03:20:57;;;;;;;19.53;10.40;;;3.80;99.90;;;;;;5027053;28;20029;-84
2021/03/25 03:23:30;;;;;;;20.03;10.03;;;3.80;99.90;;;;;;5028450;28;20036;-85
2021/03/25 03:26:00;;;;;;;18.80;9.77;;;3.80;99.90;;;;;;5032045;28;20077;-85
2021/03/25 03:28:44;;;;;;;19.30;9.87;;;3.70;99.90;;;;;;5028124;28;20077;-83
2021/03/25 03:31:17;;;;;;;22.13;10.93;;;3.70;99.90;;;;;;5033418;28;20026;-85
2021/03/25 03:33:48;;;;;;;17.97;10.03;;;3.70;99.90;;;;;;5024045;28;20018;-85
2021/03/25 03:36:17;;;;;;;17.10;10.03;;;3.70;99.90;;;;;;5024625;28;20037;-83
2021/03/25 03:39:15;;;;;;;20.00;9.47;;;3.60;99.90;;;;;;5030143;28;20483;-83
2021/03/25 03:41:49;;;;;;;19.33;10.00;;;3.60;99.90;;;;;;5026933;28;20466;-83
2021/03/25 03:44:18;;;;;;;18.43;9.57;;;3.60;99.90;;;;;;5033281;28;20032;-84
2021/03/25 03:46:46;;;;;;;17.47;10.27;;;3.60;99.90;;;;;;5033211;28;20473;-85
2021/03/25 03:49:17;;;;;;;20.43;9.20;;;3.60;99.90;;;;;;5030367;28;20026;-84
2021/03/25 03:51:58;;;;;;;18.95;9.73;;;3.50;99.90;;;;;;5028273;28;20026;-82
2021/03/25 03:54:24;;;;;;;20.20;10.63;;;3.40;99.90;;;;;;5031310;28;20033;-81
2021/03/25 03:57:23;;;;;;;20.50;10.17;;;3.40;99.90;;;;;;5034974;28;20021;-83
2021/03/25 03:59:51;;;;;;;20.17;10.43;;;3.30;99.90;;;;;;5009912;28;20459;-84
2021/03/25 04:02:29;;;;;;;16.30;9.43;;;3.20;99.90;;;;;;5026906;28;20108;-85
2021/03/25 04:05:24;;;;;;;18.47;9.83;;;3.20;99.90;;;;;;5026251;28;20032;-82
2021/03/25 04:08:25;;;;;;;16.30;8.63;;;3.20;99.90;;;;;;5020241;28;20105;-84
2021/03/25 04:10:59;;;;;;;17.00;9.23;;;3.20;99.90;;;;;;5025553;28;20427;-84
2021/03/25 04:13:29;;;;;;;16.17;8.93;;;3.20;99.90;;;;;;5029756;28;20042;-85
2021/03/25 04:15:55;;;;;;;19.00;8.33;;;3.20;99.90;;;;;;5029155;28;20497;-84
2021/03/25 04:18:43;;;;;;;15.57;9.13;;;3.20;99.90;;;;;;5034270;28;20048;-81
2021/03/25 04:21:22;;;;;;;16.17;8.70;;;3.20;99.90;;;;;;5022244;28;20434;-84
2021/03/25 04:23:50;;;;;;;16.67;8.53;;;3.20;99.90;;;;;;5033409;28;20057;-84
2021/03/25 04:26:37;;;;;;;14.57;8.80;;;3.20;99.90;;;;;;5024212;28;20026;-83
2021/03/25 04:29:07;;;;;;;14.40;8.43;;;3.10;99.90;;;;;;5029541;28;20458;-82
2021/03/25 04:31:34;;;;;;;18.20;8.53;;;3.10;99.90;;;;;;5025051;28;20018;-83
2021/03/25 04:34:02;;;;;;;15.00;7.83;;;3.10;99.90;;;;;;5031769;28;20022;-84
2021/03/25 04:36:32;;;;;;;18.30;8.50;;;3.10;99.90;;;;;;5022927;28;20463;-81
2021/03/25 04:39:00;;;;;;;15.57;8.47;;;3.10;99.90;;;;;;5030740;28;20017;-83
2021/03/25 04:41:26;;;;;;;17.07;8.30;;;3.10;99.90;;;;;;5030852;28;20017;-84
2021/03/25 04:44:02;;;;;;;16.23;7.90;;;3.10;99.90;;;;;;5031097;28;20056;-83
2021/03/25 04:46:52;;;;;;;15.23;8.30;;;3.20;99.90;;;;;;5033456;28;20044;-84
2021/03/25 04:49:45;;;;;;;17.17;8.10;;;3.10;99.90;;;;;;5033160;28;20111;-85
2021/03/25 04:52:16;;;;;;;;;;;3.10;99.90;;;;;;5019816;28;20026;-83
2021/03/25 04:54:41;;;;;;;16.40;7.80;;;3.10;99.90;;;;;;5027473;28;19980;-84
2021/03/25 04:57:25;;;;;;;16.07;7.67;;;3.10;99.90;;;;;;5032738;28;20124;-80
2021/03/25 04:59:53;;;;;;;15.47;7.40;;;3.10;99.90;;;;;;5031644;28;20057;-83
2021/03/25 05:02:19;;;;;;;14.57;7.37;;;3.10;99.90;;;;;;5026590;28;20030;-81
2021/03/25 05:04:50;;;;;;;15.13;7.70;;;3.10;99.90;;;;;;5024508;28;20456;-85
2021/03/25 05:07:46;;;;;;;14.53;8.10;;;3.10;99.90;;;;;;5025821;28;20064;-82
2021/03/25 05:10:18;;;;;;;15.03;8.07;;;3.10;99.90;;;;;;5022273;28;20423;-84
2021/03/25 05:12:44;;;;;;;14.87;8.27;;;3.10;99.90;;;;;;5024939;28;20382;-83
2021/03/25 05:15:14;;;;;;;15.00;8.30;;;3.00;99.90;;;;;;5027751;28;20513;-85
2021/03/25 05:17:57;;;;;;;14.20;7.80;;;3.00;99.90;;;;;;5029591;28;20125;-82
2021/03/25 05:20:55;;;;;;;16.03;8.50;;;3.00;99.90;;;;;;5034667;28;20390;-82
2021/03/25 05:23:43;;;;;;;15.33;8.13;;;3.00;99.90;;;;;;5030909;28;20049;-82
2021/03/25 05:26:23;;;;;;;16.40;8.30;;;3.00;99.90;;;;;;5026930;28;20025;-84
2021/03/25 05:29:00;;;;;;;16.33;9.23;;;3.00;99.90;;;;;;5042526;28;20029;-84
2021/03/25 05:31:27;;;;;;;13.97;8.60;;;3.00;99.90;;;;;;5027547;28;20107;-81
2021/03/25 05:33:57;;;;;;;14.73;8.83;;;3.00;99.90;;;;;;5032771;28;20052;-82
2021/03/25 05:36:25;;;;;;;14.90;8.23;;;3.00;99.90;;;;;;5031493;28;20025;-83
2021/03/25 05:38:53;;;;;;;15.73;8.00;;;3.00;99.90;;;;;;5029045;28;20052;-84
2021/03/25 05:41:40;;;;;;;16.30;7.93;;;3.00;99.90;;;;;;5022872;28;20096;-82
2021/03/25 05:44:41;;;;;;;18.60;8.80;;;3.10;99.90;;;;;;5027103;28;20028;-83
2021/03/25 05:47:21;;;;;;;13.33;8.00;;;3.10;99.90;;;;;;5046144;28;20072;-81
2021/03/25 05:50:11;;;;;;;18.67;8.37;;;3.20;99.90;;;;;;5032982;28;20018;-83
2021/03/25 05:52:52;;;;;;;15.40;8.00;;;3.20;99.90;;;;;;5029756;28;20097;-82
2021/03/25 05:55:43;;;;;;;16.77;8.33;;;3.10;99.90;;;;;;5034495;28;20082;-83
2021/03/25 05:58:32;;;;;;;15.07;8.07;;;3.10;99.90;;;;;;5031988;28;20025;-81
2021/03/25 06:01:22;;;;;;;17.10;8.00;;;3.10;99.90;;;;;;5032903;28;20041;-83
2021/03/25 06:04:13;;;;;;;17.20;8.30;;;3.10;99.90;;;;;;5028533;28;20024;-83
2021/03/25 06:06:51;;;;;;;14.90;8.60;;;3.10;99.90;;;;;;5029316;28;20034;-82
2021/03/25 06:09:48;;;;;;;17.13;8.33;;;3.10;99.90;;;;;;5033484;28;20025;-83
2021/03/25 06:12:54;;;;;;;12.80;7.97;;;3.20;99.90;;;;;;5030789;28;20017;-82
2021/03/25 06:15:23;;;;;;;15.23;8.40;;;3.30;99.90;;;;;;5034664;28;20145;-83
2021/03/25 06:18:10;;;;;;;14.03;8.13;;;3.40;99.90;;;;;;5031546;28;20033;-83
2021/03/25 06:20:51;;;;;;;16.70;8.63;;;3.40;99.90;;;;;;5034660;28;20033;-83
2021/03/25 06:23:47;;;;;;;14.93;8.50;;;3.50;99.90;;;;;;5034580;28;20032;-83
2021/03/25 06:26:28;;;;;;;14.93;7.53;;;3.60;99.90;;;;;;5025135;28;20037;-84
2021/03/25 06:29:12;;;;;;;18.23;8.47;;;3.70;99.90;;;;;;5031082;28;20029;-83
2021/03/25 06:32:19;;;;;;;16.00;8.10;;;3.80;99.90;;;;;;5043342;28;20021;-82
2021/03/25 06:34:49;;;;;;;13.13;7.60;;;3.90;99.90;;;;;;5031603;28;20029;-83
2021/03/25 06:37:21;;;;;;;16.90;7.73;;;4.10;99.90;;;;;;5036032;28;20052;-84
2021/03/25 06:40:05;;;;;;;11.50;6.07;;;4.10;99.90;;;;;;5034712;28;20017;-83
2021/03/25 06:42:36;;;;;;;13.33;7.97;;;4.30;99.90;;;;;;5037713;28;20044;-84
2021/03/25 06:45:09;;;;;;;14.20;8.07;;;4.30;99.90;;;;;;5034038;28;20055;-84
2021/03/25 06:47:57;;;;;;;14.83;8.43;;;4.10;99.90;;;;;;5034775;28;20056;-84
2021/03/25 06:50:34;;;;;;;18.60;9.00;;;4.00;99.90;;;;;;5036577;28;20018;-84
2021/03/25 06:53:28;;;;;;;15.30;8.67;;;4.00;99.90;;;;;;5033664;28;20030;-83
2021/03/25 06:56:08;;;;;;;14.67;8.60;;;4.00;99.90;;;;;;5034319;28;20025;-84
2021/03/25 06:59:02;;;;;;;15.67;8.47;;;3.90;99.90;;;;;;5028166;28;20041;-84
2021/03/25 07:01:36;;;;;;;16.17;8.03;;;3.90;99.90;;;;;;5032339;28;20156;-82
2021/03/25 07:04:07;;;;;;;15.87;8.50;;;4.00;99.90;;;;;;5026967;28;20053;-83
2021/03/25 07:06:36;;;;;;;16.80;8.00;;;4.10;99.90;;;;;;5027859;28;20044;-83
2021/03/25 07:09:03;;;;;;;15.00;7.50;;;4.20;99.90;;;;;;5027411;28;20046;-83
2021/03/25 07:11:31;;;;;;;15.50;8.13;;;4.30;99.90;;;;;;5027268;28;20045;-81
2021/03/25 07:14:05;;;;;;;16.10;7.93;;;4.50;99.90;;;;;;5025555;28;20033;-82
2021/03/25 07:16:41;;;;;;;14.50;7.30;;;4.70;99.90;;;;;;5023104;28;20072;-82
2021/03/25 07:19:11;;;;;;;15.73;7.60;;;4.90;99.90;;;;;;5028347;28;20033;-82
2021/03/25 07:21:44;;;;;;;16.53;8.00;;;5.00;99.90;;;;;;5030327;28;20050;-82
2021/03/25 07:24:34;;;;;;;14.40;7.40;;;5.10;99.90;;;;;;5026769;28;21223;-82
2021/03/25 07:27:16;;;;;;;11.47;6.80;;;5.20;99.90;;;;;;5028737;28;20391;-83
2021/03/25 07:29:46;;;;;;;13.05;7.07;;;5.30;99.90;;;;;;5030652;28;20056;-83
2021/03/25 07:32:26;;;;;;;13.63;7.60;;;5.40;99.90;;;;;;5029553;28;20099;-83
2021/03/25 07:34:54;;;;;;;14.67;7.20;;;5.60;99.90;;;;;;5025678;28;20044;-82
2021/03/25 07:37:41;;;;;;;16.17;7.40;;;5.70;99.90;;;;;;5025658;28;20409;-82
2021/03/25 07:40:20;;;;;;;14.43;7.70;;;5.80;99.90;;;;;;5027122;28;20021;-82
2021/03/25 07:42:48;;;;;;;15.17;7.00;;;5.90;99.90;;;;;;5026324;28;20029;-83
2021/03/25 07:45:22;;;;;;;13.97;7.67;;;6.10;99.90;;;;;;5029015;28;20128;-82
2021/03/25 07:47:50;;;;;;;14.53;7.30;;;6.30;99.90;;;;;;5032204;28;20561;-83
2021/03/25 07:50:28;;;;;;;13.20;7.37;;;6.30;99.90;;;;;;5023370;28;20026;-83
2021/03/25 07:52:55;;;;;;;14.10;7.40;;;6.30;99.90;;;;;;5024706;28;20025;-83
2021/03/25 07:55:22;;;;;;;16.57;7.33;;;6.30;99.90;;;;;;5027101;28;20033;-82
2021/03/25 07:57:51;;;;;;;15.13;7.57;;;6.30;99.90;;;;;;5025136;28;20021;-82
2021/03/25 08:00:35;;;;;;;13.23;7.40;;;6.50;99.90;;;;;;5021644;28;20017;-83
2021/03/25 08:03:21;;;;;;;14.47;7.77;;;6.30;99.90;;;;;;5023531;28;20026;-83
2021/03/25 08:05:49;;;;;;;16.50;7.43;;;6.40;99.90;;;;;;5024488;28;20029;-83
2021/03/25 08:08:33;;;;;;;13.43;7.10;;;6.60;99.90;;;;;;5025144;28;20108;-83
2021/03/25 08:11:17;;;;;;;13.33;7.23;;;6.70;99.90;;;;;;5027743;28;20021;-83
2021/03/25 08:13:48;;;;;;;13.17;7.63;;;6.80;99.90;;;;;;5023798;28;20049;-81
2021/03/25 08:16:16;;;;;;;12.15;5.88;;;7.00;99.90;;;;;;5024749;28;20033;-84
2021/03/25 08:19:00;;;;;;;13.77;7.40;;;7.10;99.90;;;;;;5025825;28;20057;-82
2021/03/25 08:21:43;;;;;;;14.53;7.27;;;7.20;99.90;;;;;;5026096;28;20113;-82
2021/03/25 08:24:41;;;;;;;16.17;7.27;;;7.40;99.90;;;;;;5029329;28;20124;-84
2021/03/25 08:27:13;;;;;;;15.60;7.20;;;7.50;99.90;;;;;;5031768;28;20053;-82
2021/03/25 08:30:24;;;;;;;16.90;8.02;;;7.60;99.90;;;;;;5034530;28;20025;-84
2021/03/25 08:33:18;;;;;;;13.90;7.80;;;7.90;99.90;;;;;;5034193;28;20029;-84
2021/03/25 08:35:46;;;;;;;17.60;7.10;;;8.10;99.90;;;;;;5025839;28;20025;-83
2021/03/25 08:38:59;;;;;;;20.23;7.37;;;8.30;99.90;;;;;;5031752;28;20757;-84
2021/03/25 08:41:34;;;;;;;15.13;6.78;;;8.50;99.90;;;;;;4993026;28;20038;-85
2021/03/25 08:44:30;;;;;;;17.23;6.87;;;8.60;99.90;;;;;;5030378;28;20060;-84
2021/03/25 08:47:27;;;;;;;14.77;7.50;;;8.80;99.90;;;;;;5031196;28;20041;-85
2021/03/25 08:50:16;;;;;;;14.98;7.32;;;9.00;99.90;;;;;;5009921;28;20080;-83
2021/03/25 08:52:43;;;;;;;12.07;6.40;;;9.10;99.90;;;;;;5020806;28;20045;-83
2021/03/25 08:55:37;;;;;;;13.02;6.80;;;9.20;99.90;;;;;;5028191;28;20018;-83
2021/03/25 08:58:18;;;;;;;21.30;7.15;;;9.50;99.90;;;;;;5029145;28;20474;-83
2021/03/25 09:00:46;;;;;;;13.82;7.15;;;9.50;99.90;;;;;;5031492;28;20021;-82
2021/03/25 09:03:33;;;;;;;14.60;6.50;;;9.50;99.90;;;;;;5031544;28;20104;-82
2021/03/25 09:06:11;;;;;;;12.15;6.80;;;9.60;99.90;;;;;;5025987;28;20417;-84
2021/03/25 09:08:40;;;;;;;15.82;7.90;;;9.80;99.90;;;;;;5027061;28;20050;-84
2021/03/25 09:11:13;;;;;;;12.68;6.68;;;10.10;99.90;;;;;;5022902;28;20022;-84
2021/03/25 09:13:50;;;;;;;14.52;6.82;;;10.20;99.90;;;;;;5026855;28;20072;-84
2021/03/25 09:16:27;;;;;;;11.20;6.50;;;10.40;99.90;;;;;;5031772;28;20090;-85
2021/03/25 09:18:53;;;;;;;11.85;6.85;;;10.70;99.90;;;;;;5026832;28;20102;-84
2021/03/25 09:21:26;;;;;;;13.23;6.40;;;10.90;99.90;;;;;;5031669;28;20071;-83
2021/03/25 09:24:03;;;;;;;11.80;7.03;;;11.10;99.90;;;;;;5032524;28;20518;-85
2021/03/25 09:26:29;;;;;;;13.00;6.80;;;11.30;99.90;;;;;;5022408;28;20026;-85
2021/03/25 09:29:01;;;;;;;17.17;7.20;;;11.40;99.90;;;;;;5029496;28;20167;-87
2021/03/25 09:31:32;;;;;;;14.40;6.88;;;11.60;99.90;;;;;;5030711;28;20084;-85
2021/03/25 09:34:10;;;;;;;16.02;7.15;;;11.80;99.90;;;;;;5032113;28;20044;-84
2021/03/25 09:36:37;;;;;;;11.50;6.82;;;11.90;99.90;;;;;;5017669;28;20502;-85
2021/03/25 09:39:03;;;;;;;12.43;6.47;;;11.90;99.90;;;;;;5026062;28;20083;-84
2021/03/25 09:41:29;;;;;;;12.25;6.38;;;12.20;99.90;;;;;;5022160;28;20030;-89
2021/03/25 09:44:02;;;;;;;12.10;6.28;;;12.30;99.10;;;;;;5028537;28;20037;-87
2021/03/25 09:46:28;;;;;;;14.68;5.78;;;12.40;98.90;;;;;;5022868;28;20030;-85
2021/03/25 09:49:12;;;;;;;17.65;5.97;;;12.60;98.10;;;;;;5022524;28;20026;-86
2021/03/25 09:51:39;;;;;;;19.10;5.80;;;12.60;97.40;;;;;;5028541;28;20116;-84
2021/03/25 09:54:21;;;;;;;16.58;6.10;;;12.70;97.90;;;;;;5026294;28;20028;-87
2021/03/25 09:56:47;;;;;;;;;;;12.80;96.20;;;;;;5022253;28;20040;-87
2021/03/25 09:59:50;;;;;;;12.45;6.00;;;12.90;95.90;;;;;;5026061;28;19909;-87
2021/03/25 10:02:50;;;;;;;9.23;5.45;;;13.00;96.00;;;;;;5025464;28;20500;-88
2021/03/25 10:05:35;;;;;;;12.38;5.47;;;13.10;95.50;;;;;;5023503;28;20107;-87
2021/03/25 10:08:14;;;;;;;9.98;5.72;;;13.10;94.70;;;;;;5027241;28;20076;-87
2021/03/25 10:10:53;;;;;;;9.75;5.18;;;13.30;95.30;;;;;;5025429;28;20108;-87
2021/03/25 10:13:43;;;;;;;11.10;5.50;;;13.60;94.30;;;;;;5045801;28;20113;-88
2021/03/25 10:16:34;;;;;;;10.88;4.68;;;13.70;91.70;;;;;;5025193;28;20033;-88
2021/03/25 10:19:03;;;;;;;11.18;4.90;;;13.90;90.70;;;;;;5040769;28;20484;-87
2021/03/25 10:21:44;;;;;;;10.20;4.78;;;14.10;89.20;;;;;;5027010;28;20025;-88
2021/03/25 10:24:42;;;;;;;11.38;4.70;;;14.40;86.60;;;;;;5031696;28;20115;-89
2021/03/25 10:27:19;;;;;;;10.60;5.18;;;14.70;85.40;;;;;;5050403;28;20049;-90
2021/03/25 10:29:47;;;;;;;13.95;6.32;;;15.00;85.90;;;;;;5028917;28;20033;-90
2021/03/25 10:32:22;;;;;;;9.10;5.47;;;15.20;82.40;;;;;;5035536;28;20018;-89
2021/03/25 10:34:57;;;;;;;9.65;5.72;;;15.40;84.60;;;;;;5032692;28;20025;-89
2021/03/25 10:37:48;;;;;;;14.73;5.75;;;15.60;81.30;;;;;;5027661;28;20028;-90
2021/03/25 10:40:17;;;;;;;12.95;5.55;;;15.70;79.60;;;;;;5029802;28;20506;-89
2021/03/25 10:42:53;;;;;;;13.27;5.05;;;15.80;75.80;;;;;;5022777;28;20091;-87
2021/03/25 10:45:47;;;;;;;13.02;5.38;;;15.80;67.30;;;;;;5027980;28;20108;-88
2021/03/25 10:48:39;;;;;;;11.57;5.40;;;15.60;65.90;;;;;;5016174;28;20061;-87
2021/03/25 10:51:15;;;;;;;10.88;4.97;;;15.50;64.50;;;;;;5026739;28;20052;-88
2021/03/25 10:53:52;;;;;;;10.55;4.78;;;15.50;65.80;;;;;;5026515;28;20444;-87
2021/03/25 10:56:37;;;;;;;9.55;4.60;;;15.50;63.60;;;;;;5020054;28;20033;-88
2021/03/25 10:59:22;;;;;;;10.38;4.45;;;15.50;64.60;;;;;;5021962;28;20104;-87
2021/03/25 11:01:55;;;;;;;10.00;5.00;;;15.40;61.90;;;;;;5025604;28;20018;-88
2021/03/25 11:04:39;;;;;;;9.50;4.40;;;15.30;62.40;;;;;;5027724;28;20034;-86
2021/03/25 11:07:10;;;;;;;13.13;4.93;;;15.10;61.60;;;;;;5024431;28;20022;-86
2021/03/25 11:09:39;;;;;;;9.88;4.43;;;15.30;61.40;;;;;;5022527;28;20018;-86
2021/03/25 11:12:11;;;;;;;12.45;4.35;;;15.40;61.10;;;;;;5027660;28;20111;-87
2021/03/25 11:14:44;;;;;;;8.68;4.47;;;15.60;60.20;;;;;;5023906;28;20036;-86
2021/03/25 11:17:21;;;;;;;10.90;4.55;;;15.90;59.50;;;;;;5024787;28;20029;-86
2021/03/25 11:19:55;;;;;;;9.38;4.43;;;16.20;57.30;;;;;;5025983;28;20112;-87
2021/03/25 11:22:22;;;;;;;10.93;4.45;;;16.20;54.80;;;;;;5022700;28;20122;-86
2021/03/25 11:24:51;;;;;;;10.70;4.30;;;16.30;55.90;;;;;;5025402;28;20030;-86
2021/03/25 11:27:23;;;;;;;11.13;4.32;;;16.30;55.30;;;;;;5011491;28;20038;-87
2021/03/25 11:30:06;;;;;;;10.00;5.10;;;16.40;55.40;;;;;;5018388;28;20027;-86
2021/03/25 11:32:42;;;;;;;10.35;4.47;;;16.50;56.10;;;;;;5019593;28;20445;-86
2021/03/25 11:35:30;;;;;;;9.32;4.88;;;16.70;56.30;;;;;;5012037;28;20026;-86
2021/03/25 11:38:14;;;;;;;10.27;4.85;;;16.80;55.10;;;;;;5011744;28;20026;-87
2021/03/25 11:40:43;;;;;;;11.85;4.82;;;16.80;55.90;;;;;;5025187;28;20453;-86
2021/03/25 11:43:22;;;;;;;10.35;5.07;;;16.60;56.40;;;;;;5024269;28;20033;-87
2021/03/25 11:45:55;;;;;;;12.57;4.85;;;16.60;56.30;;;;;;5016925;28;20080;-86
2021/03/25 11:48:36;;;;;;;9.35;4.90;;;16.60;55.40;;;;;;5015399;28;20372;-86
2021/03/25 11:51:18;;;;;;;14.23;4.88;;;16.70;55.70;;;;;;5032096;28;20108;-86
2021/03/25 11:54:08;;;;;;;11.95;5.38;;;16.80;55.60;;;;;;5016869;28;20033;-87
2021/03/25 11:56:39;;;;;;;13.27;5.38;;;16.90;57.20;;;;;;5006182;28;20386;-85
2021/03/25 11:59:23;;;;;;;10.52;5.18;;;17.10;56.00;;;;;;5011003;28;20092;-85
2021/03/25 12:01:49;;;;;;;8.40;4.55;;;16.90;55.60;;;;;;5011236;28;20022;-85
2021/03/25 12:04:14;;;;;;;10.70;5.05;;;16.90;54.90;;;;;;5011259;28;20397;-84
2021/03/25 12:07:04;;;;;;;8.80;4.90;;;17.10;55.30;;;;;;5011414;28;20033;-86
2021/03/25 12:09:33;;;;;;;12.10;5.60;;;17.30;54.50;;;;;;5011028;28;20033;-84
2021/03/25 12:12:01;;;;;;;10.27;4.90;;;17.40;53.50;;;;;;5014592;28;20385;-85
2021/03/25 12:14:27;;;;;;;9.27;4.40;;;17.50;53.10;;;;;;5030632;28;20025;-85
2021/03/25 12:16:57;;;;;;;12.77;5.20;;;17.50;54.40;;;;;;5031126;28;20021;-85
2021/03/25 12:19:24;;;;;;;11.90;5.55;;;17.20;53.30;;;;;;5011004;28;20075;-86
2021/03/25 12:21:52;;;;;;;13.07;5.43;;;17.10;54.50;;;;;;5026792;28;20467;-86
2021/03/25 12:24:24;;;;;;;11.35;5.40;;;16.80;55.00;;;;;;5030916;28;20478;-86
2021/03/25 12:26:53;;;;;;;10.55;5.32;;;16.90;54.70;;;;;;5030495;28;20021;-86
2021/03/25 12:29:18;;;;;;;12.63;5.15;;;17.10;54.10;;;;;;5031414;28;20091;-85
2021/03/25 12:31:44;;;;;;;14.15;4.90;;;17.20;54.90;;;;;;5030195;28;20478;-87
2021/03/25 12:34:13;;;;;;;11.73;5.50;;;17.20;53.50;;;;;;5029758;28;20022;-87
2021/03/25 12:36:45;;;;;;;10.70;5.20;;;17.30;54.30;;;;;;5030804;28;20406;-86
2021/03/25 12:39:11;;;;;;;13.38;5.22;;;17.50;53.30;;;;;;5030452;28;20030;-86
2021/03/25 12:41:43;;;;;;;9.75;4.97;;;17.60;52.50;;;;;;5030976;28;20052;-86
2021/03/25 12:44:13;;;;;;;11.27;5.13;;;17.70;52.00;;;;;;5030930;28;20026;-87
2021/03/25 12:46:40;;;;;;;9.63;4.75;;;17.90;52.20;;;;;;5025079;28;20029;-86
2021/03/25 12:49:07;;;;;;;10.55;4.57;;;17.50;52.70;;;;;;5031743;28;20036;-86
2021/03/25 12:51:33;;;;;;;9.68;4.72;;;17.40;53.00;;;;;;5026719;28;20498;-87
2021/03/25 12:53:58;;;;;;;8.80;4.50;;;17.20;52.30;;;;;;5026442;28;20041;-86
2021/03/25 12:56:34;;;;;;;10.88;5.40;;;17.00;53.40;;;;;;5018087;28;20030;-86
2021/03/25 12:59:09;;;;;;;10.98;5.28;;;16.80;54.80;;;;;;5016973;28;20025;-86
2021/03/25 13:01:39;;;;;;;10.73;5.05;;;16.80;54.90;;;;;;5027783;28;20022;-88
2021/03/25 13:04:05;;;;;;;11.18;5.53;;;16.70;55.20;;;;;;5024989;28;20099;-87
2021/03/25 13:06:31;;;;;;;13.45;5.78;;;16.90;55.20;;;;;;5024961;28;20478;-88
2021/03/25 13:08:57;;;;;;;13.32;6.65;;;17.00;54.90;;;;;;5023466;28;20065;-87
2021/03/25 13:11:26;;;;;;;13.45;5.78;;;16.80;55.70;;;;;;5024509;28;20033;-88
2021/03/25 13:13:56;;;;;;;13.63;6.20;;;16.70;56.70;;;;;;5027403;28;20109;-88
2021/03/25 13:16:22;;;;;;;14.98;6.55;;;16.50;57.30;;;;;;5025848;28;20022;-87
2021/03/25 13:18:48;;;;;;;11.80;5.80;;;16.30;57.10;;;;;;5030010;28;20022;-86
2021/03/25 13:21:14;;;;;;;10.90;5.88;;;16.20;57.60;;;;;;5028373;28;20084;-86
2021/03/25 13:23:40;;;;;;;13.82;6.03;;;16.30;57.00;;;;;;5025536;28;20034;-86
2021/03/25 13:26:08;;;;;;;11.63;6.63;;;16.10;58.00;;;;;;5027747;28;20033;-86
2021/03/25 13:28:34;;;;;;;15.10;6.78;;;16.10;58.20;;;;;;5025277;28;20574;-86